Time;durP1;ratioP1;P1;durP2;ratioP2;P2;SDS_P1;SDS_P2;PMS_P1;PMS_P2;Temp;Humidity;BMP_temperature;BMP_pressure;BME280_temperature;BME280_humidity;BME280_pressure;Samples;Min_cycle;Max_cycle;Signal;HPM_P1;HPM_P2
2021/09/15 00:01:35;;;;;;;19.38;15.10;;;22.10;99.90;;;;;;4971582;28;20380;-54
2021/09/15 00:04:00;;;;;;;20.10;14.70;;;22.20;99.90;;;;;;4971981;28;20889;-54
2021/09/15 00:06:27;;;;;;;23.67;16.67;;;22.20;99.90;;;;;;4971988;28;20750;-55
2021/09/15 00:08:53;;;;;;;20.40;14.15;;;23.10;99.90;;;;;;4971826;28;20400;-54
2021/09/15 00:11:19;;;;;;;17.20;14.10;;;22.10;99.90;;;;;;4972052;28;20392;-54
2021/09/15 00:13:45;;;;;;;16.95;13.75;;;22.10;99.90;;;;;;4971365;28;20390;-55
2021/09/15 00:16:12;;;;;;;20.23;14.65;;;22.00;99.90;;;;;;4971878;28;20417;-54
2021/09/15 00:18:37;;;;;;;24.42;15.82;;;22.00;99.90;;;;;;4971186;28;20380;-55
2021/09/15 00:21:03;;;;;;;19.73;15.30;;;22.00;99.90;;;;;;4972034;28;20377;-54
2021/09/15 00:23:29;;;;;;;22.97;16.40;;;22.00;99.90;;;;;;4971639;28;20455;-55
2021/09/15 00:25:55;;;;;;;18.55;15.35;;;22.10;99.90;;;;;;4971543;28;20804;-55
2021/09/15 00:28:20;;;;;;;19.52;13.77;;;22.10;99.90;;;;;;4971809;28;20739;-54
2021/09/15 00:30:46;;;;;;;22.63;16.20;;;22.10;99.90;;;;;;4971368;28;20428;-54
2021/09/15 00:33:12;;;;;;;23.23;16.73;;;22.00;99.90;;;;;;4971573;28;20386;-54
2021/09/15 00:35:37;;;;;;;19.63;15.07;;;22.10;99.90;;;;;;4970729;28;20452;-54
2021/09/15 00:38:03;;;;;;;23.20;16.52;;;22.10;99.90;;;;;;4971379;28;20869;-54
2021/09/15 00:40:29;;;;;;;23.30;16.13;;;22.00;99.90;;;;;;4970937;28;20415;-54
2021/09/15 00:42:55;;;;;;;20.90;15.30;;;22.00;99.90;;;;;;4971178;28;20873;-54
2021/09/15 00:45:20;;;;;;;18.90;14.93;;;22.00;99.90;;;;;;4971092;28;20593;-54
2021/09/15 00:47:46;;;;;;;22.23;14.65;;;22.00;99.90;;;;;;4970725;28;20641;-54
2021/09/15 00:50:12;;;;;;;18.85;13.88;;;21.90;99.90;;;;;;4971119;28;20857;-54
2021/09/15 00:52:38;;;;;;;20.20;14.53;;;21.80;99.90;;;;;;4970742;28;20393;-54
2021/09/15 00:55:04;;;;;;;19.48;14.80;;;21.70;99.90;;;;;;4971128;28;20516;-54
2021/09/15 00:57:30;;;;;;;20.38;14.90;;;21.60;99.90;;;;;;4970779;28;20889;-55
2021/09/15 00:59:56;;;;;;;21.60;15.87;;;21.40;99.90;;;;;;4970905;28;20393;-54
2021/09/15 01:02:21;;;;;;;22.97;15.57;;;21.40;99.90;;;;;;4971014;28;20474;-54
2021/09/15 01:04:47;;;;;;;21.43;15.70;;;21.50;99.90;;;;;;4970566;28;20396;-54
2021/09/15 01:07:13;;;;;;;23.20;15.70;;;21.60;99.90;;;;;;4971056;28;20388;-54
2021/09/15 01:09:39;;;;;;;21.17;15.00;;;21.60;99.90;;;;;;4970256;28;20388;-54
2021/09/15 01:12:10;;;;;;;21.13;14.80;;;21.60;99.90;;;;;;4971002;28;20384;-54
2021/09/15 01:14:38;;;;;;;20.27;14.75;;;21.50;99.90;;;;;;4970096;28;20503;-54
2021/09/15 01:17:04;;;;;;;19.70;13.63;;;21.40;99.90;;;;;;4971242;28;20873;-54
2021/09/15 01:19:29;;;;;;;20.00;14.48;;;21.30;99.90;;;;;;4970632;28;20387;-55
2021/09/15 01:21:56;;;;;;;19.80;13.10;;;21.40;99.90;;;;;;4970440;28;20388;-54
2021/09/15 01:24:24;;;;;;;20.45;12.88;;;21.40;99.90;;;;;;4970497;28;20535;-55
2021/09/15 01:26:53;;;;;;;16.70;12.55;;;21.40;99.90;;;;;;4970346;28;20738;-54
2021/09/15 01:29:29;;;;;;;17.20;12.90;;;21.40;99.90;;;;;;4970693;28;20722;-54
2021/09/15 01:31:57;;;;;;;17.70;12.57;;;20.20;99.90;;;;;;4970335;28;20400;-54
2021/09/15 01:34:23;;;;;;;17.10;12.43;;;21.60;99.90;;;;;;4985658;28;20396;-54
2021/09/15 01:36:49;;;;;;;16.77;11.98;;;21.70;99.90;;;;;;4968613;28;20490;-54
2021/09/15 01:39:15;;;;;;;15.93;11.38;;;21.70;99.90;;;;;;4970555;28;20443;-54
2021/09/15 01:41:41;;;;;;;14.85;11.32;;;21.70;99.90;;;;;;4969637;28;20881;-54
2021/09/15 01:44:06;;;;;;;16.20;11.40;;;21.60;99.90;;;;;;4970632;28;20395;-54
2021/09/15 01:46:32;;;;;;;17.00;11.73;;;21.50;99.90;;;;;;4969951;28;20466;-54
2021/09/15 01:48:58;;;;;;;15.50;11.10;;;21.40;99.90;;;;;;4970698;28;20723;-54
2021/09/15 01:51:23;;;;;;;15.00;11.30;;;21.40;99.90;;;;;;4970447;28;20890;-54
2021/09/15 01:53:49;;;;;;;16.53;11.10;;;21.50;99.90;;;;;;4967949;28;20388;-55
2021/09/15 01:56:15;;;;;;;15.60;10.70;;;21.50;99.90;;;;;;4970194;28;20478;-55
2021/09/15 01:58:41;;;;;;;14.60;10.45;;;21.50;99.90;;;;;;4973144;28;20443;-55
2021/09/15 02:01:06;;;;;;;18.90;10.50;;;21.50;99.90;;;;;;4974486;28;20854;-54
2021/09/15 02:03:32;;;;;;;14.00;10.20;;;21.50;99.90;;;;;;4973674;28;20399;-55
2021/09/15 02:05:58;;;;;;;16.50;10.73;;;21.40;99.90;;;;;;4974554;28;20419;-55
2021/09/15 02:08:23;;;;;;;16.58;10.43;;;21.40;99.90;;;;;;4974360;28;20395;-54
2021/09/15 02:10:49;;;;;;;12.60;9.80;;;21.40;99.90;;;;;;4973335;28;20416;-55
2021/09/15 02:13:15;;;;;;;14.82;9.57;;;21.50;99.90;;;;;;4974411;28;20463;-54
2021/09/15 02:15:42;;;;;;;14.80;9.60;;;21.40;99.90;;;;;;4973312;28;20420;-55
2021/09/15 02:18:08;;;;;;;14.25;9.70;;;21.40;99.90;;;;;;4974324;28;20403;-54
2021/09/15 02:20:35;;;;;;;14.53;9.80;;;21.40;99.90;;;;;;4973388;28;20399;-55
2021/09/15 02:23:02;;;;;;;13.77;9.30;;;21.50;99.90;;;;;;4974012;28;20404;-55
2021/09/15 02:25:28;;;;;;;14.33;9.43;;;21.60;99.90;;;;;;4973666;28;20503;-54
2021/09/15 02:27:53;;;;;;;14.45;9.30;;;21.70;99.90;;;;;;4973114;28;20487;-55
2021/09/15 02:30:19;;;;;;;13.38;9.65;;;21.80;99.90;;;;;;4972600;28;20399;-55
2021/09/15 02:32:45;;;;;;;14.32;9.23;;;21.90;99.90;;;;;;4973164;28;20390;-55
2021/09/15 02:35:12;;;;;;;15.05;9.60;;;21.80;99.90;;;;;;4973870;28;20419;-55
2021/09/15 02:37:38;;;;;;;17.70;9.77;;;21.70;99.90;;;;;;4972701;28;20476;-55
2021/09/15 02:40:05;;;;;;;14.75;10.60;;;21.70;99.90;;;;;;4973475;28;20808;-55
2021/09/15 02:42:31;;;;;;;16.17;9.90;;;21.70;99.90;;;;;;4972793;28;20488;-55
2021/09/15 02:44:56;;;;;;;13.32;9.80;;;21.70;99.90;;;;;;4972649;28;20486;-54
2021/09/15 02:47:22;;;;;;;12.25;8.77;;;21.60;99.90;;;;;;4973789;28;20560;-54
2021/09/15 02:49:48;;;;;;;13.00;9.13;;;21.70;99.90;;;;;;4972678;28;20889;-55
2021/09/15 02:52:13;;;;;;;14.87;10.60;;;21.70;99.90;;;;;;4973610;28;20861;-54
2021/09/15 02:54:39;;;;;;;13.33;9.40;;;21.70;99.90;;;;;;4972907;28;20420;-54
2021/09/15 02:57:04;;;;;;;14.73;10.03;;;21.70;99.90;;;;;;4973502;28;20388;-54
2021/09/15 02:59:30;;;;;;;13.80;9.70;;;21.60;99.90;;;;;;4973428;28;20785;-54
2021/09/15 03:01:56;;;;;;;14.98;10.52;;;21.50;99.90;;;;;;4973223;28;20931;-54
2021/09/15 03:04:21;;;;;;;13.77;9.88;;;21.40;99.90;;;;;;4973600;28;21049;-54
2021/09/15 03:06:47;;;;;;;16.50;9.63;;;21.40;99.90;;;;;;4988034;28;20486;-54
2021/09/15 03:09:12;;;;;;;14.80;9.70;;;21.40;99.90;;;;;;4972591;28;20408;-54
2021/09/15 03:11:38;;;;;;;14.87;10.50;;;21.40;99.90;;;;;;4972838;28;20418;-55
2021/09/15 03:14:04;;;;;;;14.93;9.40;;;21.30;99.90;;;;;;4973522;28;20388;-54
2021/09/15 03:16:30;;;;;;;16.05;10.63;;;21.30;99.90;;;;;;4973442;28;20912;-54
2021/09/15 03:18:55;;;;;;;14.75;10.68;;;21.30;99.90;;;;;;4972707;28;20474;-54
2021/09/15 03:21:21;;;;;;;15.00;10.63;;;21.30;99.90;;;;;;4973388;28;20574;-54
2021/09/15 03:23:47;;;;;;;15.80;10.90;;;21.20;99.90;;;;;;4972466;28;20387;-54
2021/09/15 03:26:13;;;;;;;16.55;10.60;;;21.10;99.90;;;;;;4973628;28;20410;-54
2021/09/15 03:28:38;;;;;;;13.83;10.10;;;21.20;99.90;;;;;;4972731;28;20400;-54
2021/09/15 03:31:04;;;;;;;15.60;10.10;;;21.30;99.90;;;;;;4973180;28;20814;-54
2021/09/15 03:33:30;;;;;;;15.75;10.40;;;21.30;99.90;;;;;;4972687;28;20404;-54
2021/09/15 03:35:55;;;;;;;14.60;10.05;;;20.10;99.90;;;;;;4972368;28;20423;-54
2021/09/15 03:38:21;;;;;;;13.43;9.77;;;21.10;99.90;;;;;;4972978;28;20395;-54
2021/09/15 03:40:47;;;;;;;15.03;10.40;;;21.10;99.90;;;;;;4972211;28;20389;-54
2021/09/15 03:43:12;;;;;;;14.70;10.83;;;21.00;99.90;;;;;;4972862;28;20420;-55
2021/09/15 03:45:38;;;;;;;15.20;10.38;;;20.80;99.90;;;;;;4972136;28;20411;-54
2021/09/15 03:48:04;;;;;;;14.77;9.70;;;20.80;99.90;;;;;;4974811;28;20404;-54
2021/09/15 03:50:30;;;;;;;15.93;10.60;;;20.90;99.90;;;;;;4981310;28;20380;-54
2021/09/15 03:52:55;;;;;;;16.27;10.88;;;21.10;99.90;;;;;;4972650;28;20384;-54
2021/09/15 03:55:21;;;;;;;16.13;10.40;;;21.10;99.90;;;;;;4972582;28;20464;-54
2021/09/15 03:57:47;;;;;;;16.75;10.80;;;21.10;99.90;;;;;;4980768;28;20382;-54
2021/09/15 04:00:13;;;;;;;14.90;10.53;;;21.00;99.90;;;;;;4991642;28;20422;-54
2021/09/15 04:02:38;;;;;;;16.00;10.80;;;21.00;99.90;;;;;;4990982;28;20478;-54
2021/09/15 04:05:05;;;;;;;14.27;10.55;;;21.00;99.90;;;;;;4983795;28;20398;-54
2021/09/15 04:07:30;;;;;;;15.73;10.77;;;21.10;99.90;;;;;;4973061;28;20416;-54
2021/09/15 04:09:56;;;;;;;14.95;10.50;;;21.20;99.90;;;;;;4971696;28;20500;-54
2021/09/15 04:12:22;;;;;;;16.70;10.30;;;21.10;99.90;;;;;;4972244;28;20400;-54
2021/09/15 04:14:47;;;;;;;16.92;10.80;;;21.10;99.90;;;;;;4971534;28;20392;-54
2021/09/15 04:17:13;;;;;;;17.33;11.15;;;21.10;99.90;;;;;;4971927;28;20439;-54
2021/09/15 04:19:39;;;;;;;17.48;11.20;;;21.20;99.90;;;;;;4971110;28;20424;-54
2021/09/15 04:22:06;;;;;;;17.10;10.90;;;21.10;99.90;;;;;;4972018;28;20388;-54
2021/09/15 04:32:32;;;;;;;16.07;11.57;;;20.90;99.90;;;;;;4971611;28;20455;-55
2021/09/15 04:34:57;;;;;;;17.67;12.30;;;21.00;99.90;;;;;;4970861;28;20813;-54
2021/09/15 04:37:23;;;;;;;17.50;12.20;;;20.90;99.90;;;;;;4971396;28;20778;-54
2021/09/15 04:39:49;;;;;;;18.13;12.63;;;20.70;99.90;;;;;;4969725;28;20397;-54
2021/09/15 04:42:14;;;;;;;17.10;12.10;;;20.70;99.90;;;;;;4980273;28;20391;-54
2021/09/15 04:44:40;;;;;;;18.07;12.27;;;20.70;99.90;;;;;;4988976;28;20872;-54
2021/09/15 04:47:06;;;;;;;19.13;12.00;;;20.70;99.90;;;;;;4987890;28;20491;-54
2021/09/15 04:49:31;;;;;;;18.58;12.02;;;20.70;99.90;;;;;;4971301;28;20435;-54
2021/09/15 04:51:57;;;;;;;15.93;11.27;;;20.70;99.90;;;;;;4970678;28;20398;-54
2021/09/15 04:54:22;;;;;;;16.47;11.90;;;20.70;99.90;;;;;;4969820;28;20905;-54
2021/09/15 04:56:48;;;;;;;16.67;11.90;;;20.80;99.90;;;;;;4976647;28;20415;-54
2021/09/15 04:59:14;;;;;;;18.08;12.07;;;20.70;99.90;;;;;;4981854;28;20406;-54
2021/09/15 05:01:39;;;;;;;17.45;11.43;;;20.60;99.90;;;;;;4975272;28;20396;-54
2021/09/15 05:04:05;;;;;;;15.73;11.43;;;20.60;99.90;;;;;;4976859;28;20877;-54
2021/09/15 05:06:30;;;;;;;19.10;10.70;;;20.60;99.90;;;;;;4979710;28;20413;-54
2021/09/15 05:08:56;;;;;;;16.20;10.90;;;20.50;99.90;;;;;;4985357;28;20426;-54
2021/09/15 05:11:21;;;;;;;14.07;10.37;;;20.50;99.90;;;;;;4971354;28;20868;-54
2021/09/15 05:13:47;;;;;;;14.67;10.40;;;20.50;99.90;;;;;;4970008;28;20396;-54
2021/09/15 05:16:13;;;;;;;13.40;9.68;;;20.50;99.90;;;;;;4971125;28;20416;-54
2021/09/15 05:18:39;;;;;;;13.67;9.40;;;20.50;99.90;;;;;;4987536;28;20417;-54
2021/09/15 05:21:04;;;;;;;15.03;9.37;;;20.50;99.90;;;;;;4981563;28;20383;-54
2021/09/15 05:23:30;;;;;;;17.08;9.27;;;20.60;99.90;;;;;;4980617;28;20401;-54
2021/09/15 05:25:56;;;;;;;12.20;8.50;;;20.60;99.90;;;;;;4979602;28;20521;-53
2021/09/15 05:28:22;;;;;;;14.23;9.17;;;20.80;99.90;;;;;;4981781;28;20850;-54
2021/09/15 05:30:48;;;;;;;14.30;9.95;;;20.90;99.90;;;;;;4984174;28;20394;-54
2021/09/15 05:33:13;;;;;;;14.40;8.80;;;20.90;99.90;;;;;;4981087;28;20517;-54
2021/09/15 05:35:39;;;;;;;14.75;8.23;;;20.80;99.90;;;;;;4980379;28;20509;-54
2021/09/15 05:38:05;;;;;;;12.95;8.20;;;20.70;99.90;;;;;;4988607;28;20394;-53
2021/09/15 05:40:30;;;;;;;15.57;8.67;;;20.60;99.90;;;;;;4989721;28;20383;-53
2021/09/15 05:42:56;;;;;;;12.67;8.40;;;20.50;99.90;;;;;;4983016;28;20403;-53
2021/09/15 05:45:22;;;;;;;11.70;8.00;;;20.50;99.90;;;;;;4983773;28;20391;-53
2021/09/15 05:47:47;;;;;;;14.25;8.02;;;20.50;99.90;;;;;;4987034;28;20401;-53
2021/09/15 05:50:13;;;;;;;14.02;7.57;;;20.50;99.90;;;;;;4983536;28;20399;-53
2021/09/15 05:52:39;;;;;;;13.00;7.80;;;20.40;99.90;;;;;;4988846;28;20378;-54
2021/09/15 05:55:06;;;;;;;12.03;8.03;;;20.50;99.90;;;;;;4988807;28;20434;-53
2021/09/15 05:57:32;;;;;;;13.82;8.25;;;19.80;99.90;;;;;;4988655;28;20749;-54
2021/09/15 05:59:58;;;;;;;15.27;8.10;;;20.40;99.90;;;;;;4988531;28;20445;-53
2021/09/15 06:02:23;;;;;;;12.30;7.63;;;20.50;99.90;;;;;;4986389;28;20398;-54
2021/09/15 06:04:50;;;;;;;12.80;7.82;;;19.50;99.90;;;;;;4989596;28;20817;-54
2021/09/15 06:07:16;;;;;;;12.80;7.47;;;20.60;99.90;;;;;;4983160;28;20753;-54
2021/09/15 06:09:42;;;;;;;13.07;8.37;;;20.60;99.90;;;;;;4981354;28;20415;-54
2021/09/15 06:12:07;;;;;;;13.73;7.90;;;20.60;99.90;;;;;;4974658;28;20742;-54
2021/09/15 06:14:33;;;;;;;14.65;8.13;;;20.60;99.90;;;;;;4969078;28;20439;-54
2021/09/15 06:16:59;;;;;;;15.40;8.40;;;20.50;99.90;;;;;;4969195;28;20423;-54
2021/09/15 06:19:24;;;;;;;13.00;8.50;;;20.70;99.90;;;;;;4970007;28;20447;-54
2021/09/15 06:21:50;;;;;;;13.48;8.30;;;20.70;99.90;;;;;;4969551;28;20471;-54
2021/09/15 06:24:16;;;;;;;15.05;8.95;;;20.70;99.90;;;;;;4987987;28;20540;-54
2021/09/15 06:26:42;;;;;;;11.73;7.80;;;20.80;99.90;;;;;;4987311;28;20448;-53
2021/09/15 06:29:08;;;;;;;13.73;8.07;;;20.80;99.90;;;;;;4989462;28;20382;-53
2021/09/15 06:31:36;;;;;;;12.57;7.90;;;20.70;99.90;;;;;;4988321;28;20497;-54
2021/09/15 06:34:03;;;;;;;13.82;8.20;;;20.70;99.90;;;;;;4988954;28;20625;-53
2021/09/15 06:36:29;;;;;;;13.50;8.00;;;20.70;99.90;;;;;;4988968;28;20946;-53
2021/09/15 06:38:54;;;;;;;13.87;7.67;;;20.60;99.90;;;;;;4988727;28;20448;-53
2021/09/15 06:41:20;;;;;;;15.10;8.40;;;20.60;99.90;;;;;;4989350;28;20518;-53
2021/09/15 06:43:46;;;;;;;12.98;8.38;;;20.60;99.90;;;;;;4989825;28;20398;-53
2021/09/15 06:46:11;;;;;;;15.13;7.75;;;20.70;99.90;;;;;;4992489;28;20383;-53
2021/09/15 06:48:37;;;;;;;14.40;7.97;;;20.80;99.90;;;;;;4992703;28;20375;-55
2021/09/15 06:51:03;;;;;;;18.77;9.47;;;20.90;99.90;;;;;;4992554;28;20393;-54
2021/09/15 06:53:28;;;;;;;14.85;8.43;;;21.00;99.90;;;;;;4993034;28;20382;-53
2021/09/15 06:55:54;;;;;;;15.65;8.30;;;21.00;99.90;;;;;;4991486;28;20595;-53
2021/09/15 06:58:20;;;;;;;14.65;8.00;;;21.10;99.90;;;;;;4992432;28;20478;-53
2021/09/15 07:00:45;;;;;;;14.73;8.10;;;21.10;99.90;;;;;;4991905;28;20924;-54
2021/09/15 07:03:11;;;;;;;14.10;7.82;;;21.20;99.90;;;;;;4992380;28;20387;-54
2021/09/15 07:05:37;;;;;;;14.02;7.65;;;21.10;99.90;;;;;;4991117;28;20457;-55
2021/09/15 07:08:04;;;;;;;13.93;7.37;;;21.00;99.90;;;;;;4992199;28;20390;-53
2021/09/15 07:10:32;;;;;;;10.43;7.40;;;20.90;99.90;;;;;;4992469;28;20395;-53
2021/09/15 07:12:57;;;;;;;12.82;7.50;;;21.00;99.90;;;;;;4991594;28;20386;-54
2021/09/15 07:15:23;;;;;;;13.00;7.20;;;21.00;99.90;;;;;;4991852;28;20421;-54
2021/09/15 07:17:49;;;;;;;12.97;7.63;;;20.90;99.90;;;;;;4991706;28;20398;-54
2021/09/15 07:20:15;;;;;;;14.20;7.20;;;20.80;99.90;;;;;;4990763;28;20441;-54
2021/09/15 07:22:41;;;;;;;12.30;7.60;;;20.70;99.90;;;;;;4991596;28;20429;-54
2021/09/15 07:25:09;;;;;;;13.30;7.10;;;20.60;99.90;;;;;;4991927;28;20468;-54
2021/09/15 07:27:35;;;;;;;12.75;7.18;;;20.60;99.90;;;;;;4992482;28;20398;-54
2021/09/15 07:30:00;;;;;;;11.70;7.00;;;20.60;99.90;;;;;;4991377;28;20379;-54
2021/09/15 07:32:27;;;;;;;13.30;7.60;;;20.70;99.90;;;;;;4990725;28;20548;-54
2021/09/15 07:34:52;;;;;;;11.00;7.10;;;20.90;99.90;;;;;;4991090;28;20710;-53
2021/09/15 07:37:18;;;;;;;13.10;7.53;;;20.90;99.90;;;;;;4991738;28;20868;-54
2021/09/15 07:39:44;;;;;;;13.73;7.45;;;20.90;99.90;;;;;;4991476;28;20387;-54
2021/09/15 07:42:10;;;;;;;12.47;7.40;;;21.00;99.90;;;;;;4992035;28;20497;-54
2021/09/15 07:44:36;;;;;;;15.15;8.18;;;21.00;99.90;;;;;;4992169;28;20386;-55
2021/09/15 07:47:02;;;;;;;15.90;8.73;;;21.00;99.90;;;;;;4991205;28;20994;-54
2021/09/15 07:49:28;;;;;;;13.07;8.00;;;21.00;99.90;;;;;;4991670;28;20477;-54
2021/09/15 07:51:53;;;;;;;13.60;7.40;;;21.00;99.90;;;;;;4990536;28;20499;-54
2021/09/15 07:54:19;;;;;;;12.65;7.00;;;21.00;99.90;;;;;;4991324;28;20461;-54
2021/09/15 07:56:46;;;;;;;10.32;6.40;;;21.00;99.90;;;;;;4990276;28;20481;-54
2021/09/15 07:59:11;;;;;;;12.32;6.80;;;21.00;99.90;;;;;;4991440;28;20387;-54
2021/09/15 08:01:37;;;;;;;13.03;6.20;;;21.10;99.90;;;;;;4991556;28;20470;-55
2021/09/15 08:04:03;;;;;;;13.90;6.77;;;21.10;99.90;;;;;;4990813;28;20776;-53
2021/09/15 08:06:29;;;;;;;12.45;6.00;;;21.10;99.90;;;;;;4991288;28;20818;-54
2021/09/15 08:08:56;;;;;;;11.63;6.00;;;21.10;99.90;;;;;;4990855;28;20385;-54
2021/09/15 08:11:21;;;;;;;15.48;6.70;;;21.10;99.90;;;;;;4991309;28;20393;-54
2021/09/15 08:13:47;;;;;;;10.68;5.95;;;21.30;99.90;;;;;;4991158;28;20387;-54
2021/09/15 08:16:13;;;;;;;12.23;6.20;;;21.50;99.90;;;;;;4990760;28;20422;-54
2021/09/15 08:18:39;;;;;;;9.23;5.60;;;21.40;99.90;;;;;;4973312;28;20409;-55
2021/09/15 08:21:06;;;;;;;11.32;5.70;;;20.70;99.90;;;;;;4991173;28;20387;-54
2021/09/15 08:23:32;;;;;;;11.35;5.47;;;21.20;99.90;;;;;;4990873;28;20390;-53
2021/09/15 08:25:57;;;;;;;11.63;5.55;;;21.20;99.90;;;;;;4988825;28;20518;-54
2021/09/15 08:28:23;;;;;;;10.00;5.47;;;21.10;99.90;;;;;;4991021;28;20444;-53
2021/09/15 08:30:49;;;;;;;9.90;5.32;;;21.00;99.90;;;;;;4990088;28;20391;-54
2021/09/15 08:33:15;;;;;;;11.27;5.38;;;20.90;99.90;;;;;;4990778;28;20375;-54
2021/09/15 08:35:41;;;;;;;9.07;4.90;;;20.90;99.90;;;;;;4990044;28;20410;-54
2021/09/15 08:38:11;;;;;;;10.63;5.70;;;20.80;99.90;;;;;;4990656;28;20391;-53
2021/09/15 08:40:38;;;;;;;11.60;5.80;;;20.70;99.90;;;;;;4990504;28;20864;-53
2021/09/15 08:43:03;;;;;;;13.88;6.20;;;20.50;99.90;;;;;;4990586;28;20473;-52
2021/09/15 08:45:29;;;;;;;9.43;5.90;;;20.50;99.90;;;;;;4990536;28;20742;-51
2021/09/15 08:47:56;;;;;;;11.40;5.80;;;20.50;99.90;;;;;;4989507;28;20776;-54
2021/09/15 08:50:23;;;;;;;8.95;5.45;;;20.50;99.90;;;;;;4989980;28;20957;-54
2021/09/15 08:52:49;;;;;;;10.95;5.38;;;20.50;99.90;;;;;;4989482;28;20386;-52
2021/09/15 08:55:15;;;;;;;9.10;5.28;;;20.50;99.90;;;;;;4989978;28;21047;-52
2021/09/15 08:57:40;;;;;;;9.70;5.00;;;20.50;99.90;;;;;;4989494;28;20394;-53
2021/09/15 09:00:09;;;;;;;10.48;5.72;;;20.60;99.90;;;;;;4990125;28;20394;-51
2021/09/15 09:02:41;;;;;;;12.07;5.47;;;20.80;99.90;;;;;;4990240;28;20864;-54
2021/09/15 09:05:07;;;;;;;11.32;6.20;;;20.90;99.90;;;;;;4990589;28;20391;-54
2021/09/15 09:07:33;;;;;;;10.35;5.75;;;20.80;99.90;;;;;;4990506;28;20410;-54
2021/09/15 09:10:06;;;;;;;12.70;6.30;;;20.90;99.90;;;;;;4989306;28;20390;-53
2021/09/15 09:12:32;;;;;;;9.05;5.65;;;20.90;99.90;;;;;;4990053;28;20390;-54
2021/09/15 09:15:22;;;;;;;10.15;5.28;;;20.90;99.90;;;;;;4989256;28;20389;-54
2021/09/15 09:17:48;;;;;;;10.65;5.63;;;20.90;99.90;;;;;;4988080;28;20413;-54
2021/09/15 09:20:23;;;;;;;11.55;6.25;;;20.90;99.90;;;;;;4990426;28;20386;-54
2021/09/15 09:23:04;;;;;;;13.27;5.88;;;20.90;99.90;;;;;;4989229;28;20394;-54
2021/09/15 09:25:34;;;;;;;12.85;6.15;;;20.90;99.90;;;;;;4990003;28;20417;-54
2021/09/15 09:28:00;;;;;;;9.80;5.20;;;20.90;99.90;;;;;;4989384;28;20394;-54
2021/09/15 09:30:38;;;;;;;9.30;6.17;;;20.90;99.90;;;;;;4989888;28;20880;-54
2021/09/15 09:33:07;;;;;;;10.77;6.00;;;20.90;99.90;;;;;;4989040;28;20382;-54
2021/09/15 09:35:44;;;;;;;10.85;5.68;;;20.90;99.90;;;;;;4989624;28;20418;-53
2021/09/15 09:38:16;;;;;;;11.35;5.75;;;20.90;99.90;;;;;;4989646;28;20382;-53
2021/09/15 09:41:01;;;;;;;8.55;5.10;;;20.80;99.90;;;;;;4988947;28;20409;-55
2021/09/15 09:43:29;;;;;;;8.45;5.30;;;20.70;99.90;;;;;;4989565;28;20445;-52
2021/09/15 09:45:55;;;;;;;10.40;5.10;;;20.70;99.90;;;;;;4988790;28;20403;-54
2021/09/15 09:48:41;;;;;;;11.30;5.60;;;20.80;99.90;;;;;;4988911;28;20856;-54
2021/09/15 09:51:31;;;;;;;12.82;5.55;;;20.90;99.90;;;;;;4989589;28;20384;-53
2021/09/15 09:54:11;;;;;;;9.50;5.20;;;21.00;99.90;;;;;;4987998;28;20382;-54
2021/09/15 09:56:39;;;;;;;10.52;5.38;;;21.10;99.90;;;;;;4989803;28;20442;-54
2021/09/15 09:59:06;;;;;;;11.37;5.40;;;21.30;99.90;;;;;;4989012;28;20390;-54
2021/09/15 10:01:47;;;;;;;11.75;5.18;;;21.20;99.90;;;;;;4989493;28;20454;-54
2021/09/15 10:04:17;;;;;;;8.93;5.07;;;21.30;99.90;;;;;;4989585;28;20882;-54
2021/09/15 10:06:44;;;;;;;8.77;5.00;;;21.50;99.90;;;;;;4988604;28;20894;-54
2021/09/15 10:09:10;;;;;;;11.32;5.35;;;21.50;99.90;;;;;;4988888;28;20772;-54
2021/09/15 10:11:38;;;;;;;12.03;5.50;;;21.60;99.90;;;;;;4989430;28;20843;-54
2021/09/15 10:14:09;;;;;;;8.93;4.60;;;23.70;99.90;;;;;;4989133;28;20472;-54
2021/09/15 10:17:00;;;;;;;9.38;5.03;;;21.70;99.90;;;;;;4987746;28;20740;-54
2021/09/15 10:19:31;;;;;;;11.07;4.90;;;21.80;99.90;;;;;;4992332;28;20401;-54
2021/09/15 10:22:03;;;;;;;10.45;5.03;;;22.00;99.90;;;;;;4992860;28;20407;-54
2021/09/15 10:24:47;;;;;;;9.60;4.95;;;22.10;99.90;;;;;;4992816;28;20428;-54
2021/09/15 10:27:14;;;;;;;8.33;4.93;;;22.30;99.90;;;;;;4993844;28;20402;-54
2021/09/15 10:29:41;;;;;;;8.18;4.97;;;22.60;99.90;;;;;;4992711;28;20405;-55
2021/09/15 10:32:09;;;;;;;8.60;4.70;;;22.90;99.90;;;;;;4993257;28;20389;-54
2021/09/15 10:34:55;;;;;;;9.13;4.63;;;22.80;99.90;;;;;;4993359;28;20521;-54
2021/09/15 10:37:20;;;;;;;10.75;5.20;;;23.00;99.90;;;;;;4991208;28;20929;-54
2021/09/15 10:39:56;;;;;;;10.25;5.25;;;23.10;99.90;;;;;;4991972;28;20387;-54
2021/09/15 10:42:37;;;;;;;8.65;4.50;;;23.10;99.90;;;;;;4992951;28;20398;-55
2021/09/15 10:45:09;;;;;;;9.85;4.57;;;23.00;99.90;;;;;;4992256;28;20397;-54
2021/09/15 10:47:39;;;;;;;9.48;5.30;;;23.00;99.90;;;;;;4991528;28;20453;-54
2021/09/15 10:50:07;;;;;;;8.47;4.60;;;23.00;99.90;;;;;;4992506;28;20390;-55
2021/09/15 10:52:50;;;;;;;8.55;4.50;;;23.00;99.90;;;;;;4993211;28;20394;-55
2021/09/15 10:55:23;;;;;;;9.13;4.70;;;23.10;99.90;;;;;;4992678;28;20517;-55
2021/09/15 10:57:49;;;;;;;8.10;4.68;;;23.20;99.90;;;;;;4992298;28;20398;-54
2021/09/15 11:00:15;;;;;;;12.15;5.18;;;23.30;99.90;;;;;;4992382;28;20413;-55
2021/09/15 11:02:42;;;;;;;8.57;4.40;;;23.20;99.90;;;;;;4992269;28;20391;-56
2021/09/15 11:05:41;;;;;;;10.23;4.85;;;23.00;99.90;;;;;;4992607;28;20390;-54
2021/09/15 11:08:09;;;;;;;9.90;4.70;;;22.90;99.90;;;;;;4991844;28;20403;-54
2021/09/15 11:10:39;;;;;;;8.38;5.22;;;22.80;99.90;;;;;;4992642;28;20493;-55
2021/09/15 11:13:06;;;;;;;9.63;4.30;;;23.00;99.90;;;;;;4991881;28;20391;-55
2021/09/15 11:15:43;;;;;;;10.70;4.80;;;23.10;99.90;;;;;;4992694;28;20505;-54
2021/09/15 11:18:21;;;;;;;10.95;5.13;;;23.20;99.90;;;;;;4991252;28;20489;-55
2021/09/15 11:20:55;;;;;;;9.35;4.80;;;23.40;99.90;;;;;;4991808;28;20410;-55
2021/09/15 11:23:24;;;;;;;10.40;5.03;;;23.50;99.90;;;;;;4992034;28;20389;-55
2021/09/15 11:25:50;;;;;;;10.13;5.10;;;23.60;99.90;;;;;;4991575;28;20537;-52
2021/09/15 11:28:18;;;;;;;9.97;4.53;;;23.80;99.90;;;;;;4992093;28;20379;-54
2021/09/15 11:30:56;;;;;;;9.77;5.33;;;23.80;99.90;;;;;;4990017;28;20713;-53
2021/09/15 11:33:26;;;;;;;10.02;4.00;;;24.20;99.90;;;;;;4991917;28;20393;-53
2021/09/15 11:35:59;;;;;;;8.57;4.70;;;24.30;99.90;;;;;;4991263;28;20872;-53
2021/09/15 11:38:26;;;;;;;8.75;4.72;;;24.30;99.90;;;;;;4992044;28;20375;-54
2021/09/15 11:41:03;;;;;;;10.75;5.00;;;24.10;99.90;;;;;;4991401;28;20684;-53
2021/09/15 11:43:28;;;;;;;8.77;4.93;;;24.10;99.90;;;;;;4991901;28;20383;-53
2021/09/15 11:45:54;;;;;;;8.75;5.00;;;23.90;99.90;;;;;;4990864;28;20895;-53
2021/09/15 11:48:31;;;;;;;9.63;5.07;;;23.80;99.90;;;;;;4990497;28;21190;-53
2021/09/15 11:50:58;;;;;;;7.60;4.50;;;23.80;99.90;;;;;;4991006;28;20470;-53
2021/09/15 11:53:26;;;;;;;10.20;4.65;;;23.90;99.90;;;;;;4991578;28;20386;-53
2021/09/15 11:56:01;;;;;;;8.40;4.90;;;23.60;99.90;;;;;;4990188;28;20485;-53
2021/09/15 11:58:27;;;;;;;12.68;5.20;;;23.70;99.90;;;;;;4991234;28;20896;-53
2021/09/15 12:00:54;;;;;;;8.50;4.43;;;23.70;99.90;;;;;;4990495;28;20437;-53
2021/09/15 12:03:29;;;;;;;8.20;4.43;;;23.50;99.90;;;;;;4990212;28;20413;-53
2021/09/15 12:05:58;;;;;;;9.10;4.35;;;23.40;99.90;;;;;;4990458;28;20427;-53
2021/09/15 12:08:25;;;;;;;9.70;4.32;;;23.30;99.90;;;;;;4991572;28;20426;-53
2021/09/15 12:10:55;;;;;;;8.93;4.75;;;23.50;99.90;;;;;;4990292;28;20798;-53
2021/09/15 12:13:32;;;;;;;9.02;4.50;;;23.70;99.90;;;;;;4991386;28;20422;-53
2021/09/15 12:15:59;;;;;;;9.07;4.40;;;24.00;99.90;;;;;;4990204;28;20433;-53
2021/09/15 12:18:38;;;;;;;9.60;5.18;;;24.10;99.90;;;;;;4991013;28;20384;-53
2021/09/15 12:21:13;;;;;;;8.30;4.07;;;24.10;99.90;;;;;;4990190;28;20390;-53
2021/09/15 12:23:39;;;;;;;8.82;4.22;;;24.20;99.90;;;;;;4990413;28;20399;-53
2021/09/15 12:26:06;;;;;;;7.37;4.30;;;24.00;99.90;;;;;;4990213;28;20485;-53
2021/09/15 12:28:32;;;;;;;6.97;4.20;;;24.00;99.90;;;;;;4990667;28;20391;-53
2021/09/15 12:30:59;;;;;;;8.20;4.45;;;23.90;99.90;;;;;;4990527;28;20371;-53
2021/09/15 12:33:31;;;;;;;7.90;4.32;;;23.80;99.90;;;;;;4991068;28;20547;-53
2021/09/15 12:36:09;;;;;;;9.87;4.90;;;23.80;99.90;;;;;;4989902;28;20454;-53
2021/09/15 12:38:52;;;;;;;9.43;4.80;;;23.90;99.90;;;;;;4990829;28;20875;-53
2021/09/15 12:41:19;;;;;;;8.57;4.40;;;24.00;99.90;;;;;;4989140;28;20738;-53
2021/09/15 12:43:45;;;;;;;9.73;4.60;;;24.00;99.90;;;;;;4989577;28;20382;-54
2021/09/15 12:46:31;;;;;;;9.07;4.32;;;23.90;99.90;;;;;;4990709;28;20397;-53